sensor_id;sensor_type;location;lat;lon;timestamp;P1;durP1;ratioP1;P2;durP2;ratioP2
57627;SDS011;43451;49.060;10.616;2023-02-01T00:01:22;9.27;;;5.00;;
57627;SDS011;43451;49.060;10.616;2023-02-01T00:03:47;9.65;;;5.10;;
57627;SDS011;43451;49.060;10.616;2023-02-01T00:06:13;8.27;;;5.18;;
57627;SDS011;43451;49.060;10.616;2023-02-01T00:08:38;7.38;;;4.70;;
57627;SDS011;43451;49.060;10.616;2023-02-01T00:11:05;9.35;;;4.80;;
57627;SDS011;43451;49.060;10.616;2023-02-01T00:13:35;7.05;;;4.65;;
57627;SDS011;43451;49.060;10.616;2023-02-01T00:16:13;8.50;;;4.88;;
57627;SDS011;43451;49.060;10.616;2023-02-01T00:18:47;7.60;;;4.93;;
57627;SDS011;43451;49.060;10.616;2023-02-01T00:21:14;7.90;;;5.03;;
57627;SDS011;43451;49.060;10.616;2023-02-01T00:23:41;8.32;;;4.50;;
57627;SDS011;43451;49.060;10.616;2023-02-01T00:26:07;10.75;;;4.55;;
57627;SDS011;43451;49.060;10.616;2023-02-01T00:28:38;9.02;;;4.55;;
57627;SDS011;43451;49.060;10.616;2023-02-01T00:31:04;7.28;;;4.53;;
57627;SDS011;43451;49.060;10.616;2023-02-01T00:33:30;7.38;;;4.40;;
57627;SDS011;43451;49.060;10.616;2023-02-01T00:36:00;6.10;;;4.53;;
57627;SDS011;43451;49.060;10.616;2023-02-01T00:38:27;8.98;;;4.93;;
57627;SDS011;43451;49.060;10.616;2023-02-01T00:40:54;8.35;;;4.88;;
57627;SDS011;43451;49.060;10.616;2023-02-01T00:43:19;7.18;;;4.70;;
57627;SDS011;43451;49.060;10.616;2023-02-01T00:45:45;7.68;;;4.57;;
57627;SDS011;43451;49.060;10.616;2023-02-01T00:48:12;7.43;;;4.35;;
57627;SDS011;43451;49.060;10.616;2023-02-01T00:50:41;8.60;;;4.47;;
57627;SDS011;43451;49.060;10.616;2023-02-01T00:53:08;6.68;;;4.22;;
57627;SDS011;43451;49.060;10.616;2023-02-01T00:55:34;5.97;;;4.00;;
57627;SDS011;43451;49.060;10.616;2023-02-01T00:58:00;6.47;;;4.10;;
57627;SDS011;43451;49.060;10.616;2023-02-01T01:00:25;5.82;;;4.13;;
57627;SDS011;43451;49.060;10.616;2023-02-01T01:02:51;7.63;;;4.25;;
57627;SDS011;43451;49.060;10.616;2023-02-01T01:05:16;6.63;;;4.40;;
57627;SDS011;43451;49.060;10.616;2023-02-01T01:07:42;6.70;;;3.92;;
57627;SDS011;43451;49.060;10.616;2023-02-01T01:10:07;7.75;;;4.47;;
57627;SDS011;43451;49.060;10.616;2023-02-01T01:12:33;7.75;;;4.63;;
57627;SDS011;43451;49.060;10.616;2023-02-01T01:14:58;6.75;;;4.25;;
57627;SDS011;43451;49.060;10.616;2023-02-01T01:17:24;5.55;;;3.90;;
57627;SDS011;43451;49.060;10.616;2023-02-01T01:19:49;6.50;;;4.03;;
57627;SDS011;43451;49.060;10.616;2023-02-01T01:22:15;7.35;;;4.00;;
57627;SDS011;43451;49.060;10.616;2023-02-01T01:24:40;5.50;;;3.80;;
57627;SDS011;43451;49.060;10.616;2023-02-01T01:27:05;6.70;;;4.45;;
57627;SDS011;43451;49.060;10.616;2023-02-01T01:29:31;5.88;;;3.95;;
57627;SDS011;43451;49.060;10.616;2023-02-01T01:31:56;6.10;;;4.00;;
57627;SDS011;43451;49.060;10.616;2023-02-01T01:34:22;5.75;;;3.58;;
57627;SDS011;43451;49.060;10.616;2023-02-01T01:36:47;5.35;;;3.55;;
57627;SDS011;43451;49.060;10.616;2023-02-01T01:39:12;6.90;;;4.00;;
57627;SDS011;43451;49.060;10.616;2023-02-01T01:41:38;5.25;;;3.80;;
57627;SDS011;43451;49.060;10.616;2023-02-01T01:44:04;5.88;;;3.92;;
57627;SDS011;43451;49.060;10.616;2023-02-01T01:46:50;7.40;;;3.78;;
57627;SDS011;43451;49.060;10.616;2023-02-01T01:49:17;5.38;;;3.65;;
57627;SDS011;43451;49.060;10.616;2023-02-01T01:51:51;7.53;;;3.88;;
57627;SDS011;43451;49.060;10.616;2023-02-01T01:54:24;6.18;;;3.70;;
57627;SDS011;43451;49.060;10.616;2023-02-01T01:56:57;4.50;;;3.60;;
57627;SDS011;43451;49.060;10.616;2023-02-01T01:59:25;5.57;;;3.90;;
57627;SDS011;43451;49.060;10.616;2023-02-01T02:01:51;5.10;;;3.72;;
57627;SDS011;43451;49.060;10.616;2023-02-01T02:04:17;6.60;;;3.58;;
57627;SDS011;43451;49.060;10.616;2023-02-01T02:09:20;5.00;;;3.30;;
57627;SDS011;43451;49.060;10.616;2023-02-01T02:11:46;6.65;;;3.80;;
57627;SDS011;43451;49.060;10.616;2023-02-01T02:14:12;4.43;;;3.22;;
57627;SDS011;43451;49.060;10.616;2023-02-01T02:28:26;5.10;;;3.60;;
57627;SDS011;43451;49.060;10.616;2023-02-01T02:31:04;4.57;;;3.40;;
57627;SDS011;43451;49.060;10.616;2023-02-01T02:44:31;5.13;;;3.10;;
57627;SDS011;43451;49.060;10.616;2023-02-01T02:47:25;5.47;;;3.17;;
57627;SDS011;43451;49.060;10.616;2023-02-01T02:53:21;4.30;;;3.00;;
57627;SDS011;43451;49.060;10.616;2023-02-01T02:56:10;4.57;;;3.05;;
57627;SDS011;43451;49.060;10.616;2023-02-01T02:58:56;4.18;;;3.08;;
57627;SDS011;43451;49.060;10.616;2023-02-01T03:01:42;5.43;;;3.15;;
57627;SDS011;43451;49.060;10.616;2023-02-01T03:04:26;4.78;;;3.05;;
57627;SDS011;43451;49.060;10.616;2023-02-01T03:06:53;4.50;;;2.95;;
57627;SDS011;43451;49.060;10.616;2023-02-01T03:11:51;4.68;;;2.90;;
57627;SDS011;43451;49.060;10.616;2023-02-01T03:14:40;3.60;;;2.67;;
57627;SDS011;43451;49.060;10.616;2023-02-01T03:17:11;3.90;;;2.90;;
57627;SDS011;43451;49.060;10.616;2023-02-01T03:19:43;6.32;;;3.00;;
57627;SDS011;43451;49.060;10.616;2023-02-01T03:22:15;3.95;;;2.95;;
57627;SDS011;43451;49.060;10.616;2023-02-01T03:24:49;4.30;;;3.10;;
57627;SDS011;43451;49.060;10.616;2023-02-01T03:30:06;3.13;;;2.60;;
57627;SDS011;43451;49.060;10.616;2023-02-01T03:32:35;4.45;;;2.80;;
57627;SDS011;43451;49.060;10.616;2023-02-01T03:35:40;4.72;;;3.00;;
57627;SDS011;43451;49.060;10.616;2023-02-01T03:46:59;4.60;;;2.90;;
57627;SDS011;43451;49.060;10.616;2023-02-01T03:52:10;3.28;;;2.63;;
57627;SDS011;43451;49.060;10.616;2023-02-01T03:54:39;3.30;;;2.63;;
57627;SDS011;43451;49.060;10.616;2023-02-01T03:57:08;3.65;;;2.50;;
57627;SDS011;43451;49.060;10.616;2023-02-01T03:59:40;3.67;;;2.40;;
57627;SDS011;43451;49.060;10.616;2023-02-01T04:02:06;3.08;;;2.50;;
57627;SDS011;43451;49.060;10.616;2023-02-01T04:04:32;3.72;;;2.50;;
57627;SDS011;43451;49.060;10.616;2023-02-01T04:06:59;4.00;;;2.25;;
57627;SDS011;43451;49.060;10.616;2023-02-01T04:09:24;3.15;;;2.67;;
57627;SDS011;43451;49.060;10.616;2023-02-01T04:11:50;3.83;;;2.60;;
57627;SDS011;43451;49.060;10.616;2023-02-01T04:14:15;2.92;;;2.45;;
57627;SDS011;43451;49.060;10.616;2023-02-01T04:16:41;3.83;;;2.72;;
57627;SDS011;43451;49.060;10.616;2023-02-01T04:19:06;3.60;;;2.58;;
57627;SDS011;43451;49.060;10.616;2023-02-01T04:21:32;5.70;;;2.70;;
57627;SDS011;43451;49.060;10.616;2023-02-01T04:23:57;3.90;;;2.75;;
57627;SDS011;43451;49.060;10.616;2023-02-01T04:26:23;3.97;;;2.50;;
57627;SDS011;43451;49.060;10.616;2023-02-01T04:28:48;3.25;;;2.28;;
57627;SDS011;43451;49.060;10.616;2023-02-01T04:31:14;2.88;;;2.40;;
57627;SDS011;43451;49.060;10.616;2023-02-01T04:33:40;3.78;;;2.70;;
57627;SDS011;43451;49.060;10.616;2023-02-01T04:36:06;3.83;;;2.53;;
57627;SDS011;43451;49.060;10.616;2023-02-01T04:38:32;3.03;;;2.42;;
57627;SDS011;43451;49.060;10.616;2023-02-01T04:40:58;3.67;;;2.53;;
57627;SDS011;43451;49.060;10.616;2023-02-01T04:43:24;3.88;;;2.60;;
57627;SDS011;43451;49.060;10.616;2023-02-01T04:45:50;2.80;;;2.22;;
57627;SDS011;43451;49.060;10.616;2023-02-01T04:48:16;2.65;;;2.30;;
57627;SDS011;43451;49.060;10.616;2023-02-01T04:50:43;4.15;;;2.35;;
57627;SDS011;43451;49.060;10.616;2023-02-01T04:53:12;3.65;;;2.30;;
57627;SDS011;43451;49.060;10.616;2023-02-01T04:55:39;3.45;;;2.40;;
57627;SDS011;43451;49.060;10.616;2023-02-01T04:58:04;3.85;;;2.33;;
57627;SDS011;43451;49.060;10.616;2023-02-01T05:00:30;3.80;;;2.70;;
57627;SDS011;43451;49.060;10.616;2023-02-01T05:02:55;4.28;;;2.83;;
57627;SDS011;43451;49.060;10.616;2023-02-01T05:05:21;4.65;;;2.30;;
57627;SDS011;43451;49.060;10.616;2023-02-01T05:07:46;4.45;;;2.75;;
57627;SDS011;43451;49.060;10.616;2023-02-01T05:10:12;3.38;;;2.30;;
57627;SDS011;43451;49.060;10.616;2023-02-01T05:12:37;3.85;;;2.33;;
57627;SDS011;43451;49.060;10.616;2023-02-01T05:15:21;3.50;;;2.50;;
57627;SDS011;43451;49.060;10.616;2023-02-01T05:17:47;2.83;;;2.30;;
57627;SDS011;43451;49.060;10.616;2023-02-01T05:20:12;5.07;;;2.95;;
57627;SDS011;43451;49.060;10.616;2023-02-01T05:22:37;2.50;;;2.20;;
57627;SDS011;43451;49.060;10.616;2023-02-01T05:25:03;4.80;;;2.33;;
57627;SDS011;43451;49.060;10.616;2023-02-01T05:27:29;3.63;;;2.50;;
57627;SDS011;43451;49.060;10.616;2023-02-01T05:29:55;4.53;;;2.95;;
57627;SDS011;43451;49.060;10.616;2023-02-01T05:32:21;4.13;;;2.70;;
57627;SDS011;43451;49.060;10.616;2023-02-01T05:34:46;3.88;;;2.60;;
57627;SDS011;43451;49.060;10.616;2023-02-01T05:37:11;4.53;;;2.70;;
57627;SDS011;43451;49.060;10.616;2023-02-01T05:39:37;4.60;;;2.30;;
57627;SDS011;43451;49.060;10.616;2023-02-01T05:42:02;3.78;;;2.70;;
57627;SDS011;43451;49.060;10.616;2023-02-01T05:44:28;3.10;;;2.22;;
57627;SDS011;43451;49.060;10.616;2023-02-01T05:46:53;3.83;;;2.55;;
57627;SDS011;43451;49.060;10.616;2023-02-01T05:49:19;3.03;;;2.40;;
57627;SDS011;43451;49.060;10.616;2023-02-01T05:51:44;3.78;;;2.70;;
57627;SDS011;43451;49.060;10.616;2023-02-01T05:54:09;3.80;;;2.53;;
57627;SDS011;43451;49.060;10.616;2023-02-01T05:56:35;3.63;;;2.88;;
57627;SDS011;43451;49.060;10.616;2023-02-01T05:59:00;4.25;;;2.67;;
57627;SDS011;43451;49.060;10.616;2023-02-01T06:01:26;2.95;;;2.38;;
57627;SDS011;43451;49.060;10.616;2023-02-01T06:03:51;3.03;;;2.53;;
57627;SDS011;43451;49.060;10.616;2023-02-01T06:06:17;3.58;;;2.60;;
57627;SDS011;43451;49.060;10.616;2023-02-01T06:08:43;2.97;;;2.50;;
57627;SDS011;43451;49.060;10.616;2023-02-01T06:11:09;3.47;;;2.78;;
57627;SDS011;43451;49.060;10.616;2023-02-01T06:13:34;3.83;;;2.80;;
57627;SDS011;43451;49.060;10.616;2023-02-01T06:16:00;5.53;;;2.90;;
57627;SDS011;43451;49.060;10.616;2023-02-01T06:18:30;3.88;;;2.83;;
57627;SDS011;43451;49.060;10.616;2023-02-01T06:20:57;4.80;;;2.97;;
57627;SDS011;43451;49.060;10.616;2023-02-01T06:23:25;3.22;;;2.72;;
57627;SDS011;43451;49.060;10.616;2023-02-01T06:26:01;3.13;;;2.70;;
57627;SDS011;43451;49.060;10.616;2023-02-01T06:28:28;6.07;;;3.10;;
57627;SDS011;43451;49.060;10.616;2023-02-01T06:30:55;4.50;;;2.90;;
57627;SDS011;43451;49.060;10.616;2023-02-01T06:33:20;4.47;;;3.03;;
57627;SDS011;43451;49.060;10.616;2023-02-01T06:35:46;4.15;;;3.10;;
57627;SDS011;43451;49.060;10.616;2023-02-01T06:38:12;4.28;;;2.90;;
57627;SDS011;43451;49.060;10.616;2023-02-01T06:40:38;6.05;;;3.20;;
57627;SDS011;43451;49.060;10.616;2023-02-01T06:43:04;5.13;;;3.13;;
57627;SDS011;43451;49.060;10.616;2023-02-01T06:45:29;4.22;;;3.10;;
57627;SDS011;43451;49.060;10.616;2023-02-01T06:47:55;4.82;;;3.05;;
57627;SDS011;43451;49.060;10.616;2023-02-01T06:50:20;3.72;;;2.97;;
57627;SDS011;43451;49.060;10.616;2023-02-01T06:52:46;5.18;;;3.10;;
57627;SDS011;43451;49.060;10.616;2023-02-01T06:55:11;4.38;;;2.90;;
57627;SDS011;43451;49.060;10.616;2023-02-01T06:57:37;4.95;;;3.20;;
57627;SDS011;43451;49.060;10.616;2023-02-01T07:00:03;4.10;;;3.10;;
57627;SDS011;43451;49.060;10.616;2023-02-01T07:02:29;4.25;;;2.92;;
57627;SDS011;43451;49.060;10.616;2023-02-01T07:04:55;5.40;;;2.67;;
57627;SDS011;43451;49.060;10.616;2023-02-01T07:07:20;4.53;;;3.00;;
57627;SDS011;43451;49.060;10.616;2023-02-01T07:09:47;3.45;;;2.75;;
57627;SDS011;43451;49.060;10.616;2023-02-01T07:12:14;5.05;;;3.10;;
57627;SDS011;43451;49.060;10.616;2023-02-01T07:14:39;3.95;;;2.90;;
57627;SDS011;43451;49.060;10.616;2023-02-01T07:17:05;5.20;;;2.97;;
57627;SDS011;43451;49.060;10.616;2023-02-01T07:19:30;5.25;;;2.90;;
57627;SDS011;43451;49.060;10.616;2023-02-01T07:21:56;4.95;;;2.80;;
57627;SDS011;43451;49.060;10.616;2023-02-01T07:24:21;4.45;;;2.97;;
57627;SDS011;43451;49.060;10.616;2023-02-01T07:26:47;5.22;;;3.10;;
57627;SDS011;43451;49.060;10.616;2023-02-01T07:29:13;6.13;;;3.42;;
57627;SDS011;43451;49.060;10.616;2023-02-01T07:31:38;4.75;;;3.13;;
57627;SDS011;43451;49.060;10.616;2023-02-01T07:34:04;6.72;;;3.42;;
57627;SDS011;43451;49.060;10.616;2023-02-01T07:36:29;4.88;;;3.17;;
57627;SDS011;43451;49.060;10.616;2023-02-01T07:38:55;4.18;;;3.28;;
57627;SDS011;43451;49.060;10.616;2023-02-01T07:41:20;5.18;;;3.10;;
57627;SDS011;43451;49.060;10.616;2023-02-01T07:43:45;4.75;;;3.25;;
57627;SDS011;43451;49.060;10.616;2023-02-01T07:46:11;5.28;;;3.38;;
57627;SDS011;43451;49.060;10.616;2023-02-01T07:48:37;4.15;;;3.20;;
57627;SDS011;43451;49.060;10.616;2023-02-01T07:51:05;5.80;;;3.17;;
57627;SDS011;43451;49.060;10.616;2023-02-01T07:53:33;5.72;;;2.92;;
57627;SDS011;43451;49.060;10.616;2023-02-01T07:55:59;5.63;;;2.78;;
57627;SDS011;43451;49.060;10.616;2023-02-01T07:58:25;4.90;;;2.85;;
57627;SDS011;43451;49.060;10.616;2023-02-01T08:00:52;3.72;;;2.67;;
57627;SDS011;43451;49.060;10.616;2023-02-01T08:03:36;4.70;;;2.70;;
57627;SDS011;43451;49.060;10.616;2023-02-01T08:06:02;6.53;;;3.03;;
57627;SDS011;43451;49.060;10.616;2023-02-01T08:08:27;5.63;;;2.92;;
57627;SDS011;43451;49.060;10.616;2023-02-01T08:11:00;4.55;;;3.10;;
57627;SDS011;43451;49.060;10.616;2023-02-01T08:13:27;4.60;;;3.13;;
57627;SDS011;43451;49.060;10.616;2023-02-01T08:15:57;4.45;;;3.00;;
57627;SDS011;43451;49.060;10.616;2023-02-01T08:18:23;4.75;;;3.20;;
57627;SDS011;43451;49.060;10.616;2023-02-01T08:20:48;7.60;;;3.72;;
57627;SDS011;43451;49.060;10.616;2023-02-01T08:23:14;5.55;;;3.80;;
57627;SDS011;43451;49.060;10.616;2023-02-01T08:25:39;7.65;;;3.85;;
57627;SDS011;43451;49.060;10.616;2023-02-01T08:28:06;5.47;;;3.50;;
57627;SDS011;43451;49.060;10.616;2023-02-01T08:30:32;9.23;;;4.07;;
57627;SDS011;43451;49.060;10.616;2023-02-01T08:32:58;8.90;;;4.03;;
57627;SDS011;43451;49.060;10.616;2023-02-01T08:35:23;8.48;;;3.97;;
57627;SDS011;43451;49.060;10.616;2023-02-01T08:37:52;9.50;;;4.00;;
57627;SDS011;43451;49.060;10.616;2023-02-01T08:40:17;7.32;;;3.90;;
57627;SDS011;43451;49.060;10.616;2023-02-01T08:42:43;7.75;;;3.72;;
57627;SDS011;43451;49.060;10.616;2023-02-01T08:45:19;7.68;;;4.15;;
57627;SDS011;43451;49.060;10.616;2023-02-01T08:47:53;6.55;;;3.90;;
57627;SDS011;43451;49.060;10.616;2023-02-01T08:50:19;9.65;;;3.75;;
57627;SDS011;43451;49.060;10.616;2023-02-01T08:52:45;9.45;;;4.10;;
57627;SDS011;43451;49.060;10.616;2023-02-01T08:55:11;8.10;;;3.72;;
57627;SDS011;43451;49.060;10.616;2023-02-01T08:57:38;9.57;;;3.92;;
57627;SDS011;43451;49.060;10.616;2023-02-01T09:00:04;5.88;;;3.60;;
57627;SDS011;43451;49.060;10.616;2023-02-01T09:02:33;9.38;;;3.78;;
57627;SDS011;43451;49.060;10.616;2023-02-01T09:04:58;7.22;;;3.65;;
57627;SDS011;43451;49.060;10.616;2023-02-01T09:07:24;7.20;;;3.50;;
57627;SDS011;43451;49.060;10.616;2023-02-01T09:09:49;10.73;;;3.75;;
57627;SDS011;43451;49.060;10.616;2023-02-01T09:12:15;7.70;;;3.83;;
57627;SDS011;43451;49.060;10.616;2023-02-01T09:14:40;8.25;;;3.28;;
57627;SDS011;43451;49.060;10.616;2023-02-01T09:17:06;7.07;;;3.25;;
57627;SDS011;43451;49.060;10.616;2023-02-01T09:19:31;6.18;;;3.05;;
57627;SDS011;43451;49.060;10.616;2023-02-01T09:21:57;7.55;;;2.58;;
57627;SDS011;43451;49.060;10.616;2023-02-01T09:24:22;12.32;;;3.08;;
57627;SDS011;43451;49.060;10.616;2023-02-01T09:26:48;6.32;;;2.65;;
57627;SDS011;43451;49.060;10.616;2023-02-01T09:29:14;9.38;;;3.25;;
57627;SDS011;43451;49.060;10.616;2023-02-01T09:31:40;8.65;;;2.90;;
57627;SDS011;43451;49.060;10.616;2023-02-01T09:34:06;6.30;;;2.42;;
57627;SDS011;43451;49.060;10.616;2023-02-01T09:36:31;8.77;;;2.90;;
57627;SDS011;43451;49.060;10.616;2023-02-01T09:38:57;6.03;;;2.72;;
57627;SDS011;43451;49.060;10.616;2023-02-01T09:44:23;10.23;;;3.05;;
57627;SDS011;43451;49.060;10.616;2023-02-01T09:47:00;7.65;;;2.90;;
57627;SDS011;43451;49.060;10.616;2023-02-01T09:49:28;6.82;;;2.70;;
57627;SDS011;43451;49.060;10.616;2023-02-01T09:51:56;8.00;;;2.95;;
57627;SDS011;43451;49.060;10.616;2023-02-01T09:54:29;9.25;;;2.90;;
57627;SDS011;43451;49.060;10.616;2023-02-01T09:59:48;5.80;;;2.72;;
57627;SDS011;43451;49.060;10.616;2023-02-01T10:02:26;7.68;;;2.50;;
57627;SDS011;43451;49.060;10.616;2023-02-01T10:04:59;6.22;;;2.50;;
57627;SDS011;43451;49.060;10.616;2023-02-01T10:10:15;5.78;;;2.80;;
57627;SDS011;43451;49.060;10.616;2023-02-01T10:16:12;8.68;;;3.05;;
57627;SDS011;43451;49.060;10.616;2023-02-01T10:18:51;8.65;;;2.88;;
57627;SDS011;43451;49.060;10.616;2023-02-01T10:21:25;8.93;;;3.00;;
57627;SDS011;43451;49.060;10.616;2023-02-01T10:24:23;7.78;;;2.50;;
57627;SDS011;43451;49.060;10.616;2023-02-01T10:29:36;11.38;;;3.03;;
57627;SDS011;43451;49.060;10.616;2023-02-01T10:32:09;8.90;;;2.63;;
57627;SDS011;43451;49.060;10.616;2023-02-01T10:34:38;9.15;;;3.00;;
57627;SDS011;43451;49.060;10.616;2023-02-01T10:39:43;7.28;;;2.90;;
57627;SDS011;43451;49.060;10.616;2023-02-01T10:42:09;13.15;;;3.20;;
57627;SDS011;43451;49.060;10.616;2023-02-01T10:44:35;6.30;;;2.83;;
57627;SDS011;43451;49.060;10.616;2023-02-01T10:47:11;8.35;;;3.08;;
57627;SDS011;43451;49.060;10.616;2023-02-01T10:50:20;7.70;;;2.90;;
57627;SDS011;43451;49.060;10.616;2023-02-01T10:54:53;10.48;;;3.08;;
57627;SDS011;43451;49.060;10.616;2023-02-01T10:57:21;11.10;;;3.60;;
57627;SDS011;43451;49.060;10.616;2023-02-01T10:59:53;12.82;;;3.45;;
57627;SDS011;43451;49.060;10.616;2023-02-01T11:02:26;9.18;;;3.35;;
57627;SDS011;43451;49.060;10.616;2023-02-01T11:05:09;14.23;;;4.13;;
57627;SDS011;43451;49.060;10.616;2023-02-01T11:07:37;9.07;;;3.63;;
57627;SDS011;43451;49.060;10.616;2023-02-01T11:10:04;11.55;;;3.20;;
57627;SDS011;43451;49.060;10.616;2023-02-01T11:12:32;9.15;;;3.00;;
57627;SDS011;43451;49.060;10.616;2023-02-01T11:15:19;9.48;;;3.20;;
57627;SDS011;43451;49.060;10.616;2023-02-01T11:17:46;8.63;;;3.78;;
57627;SDS011;43451;49.060;10.616;2023-02-01T11:20:17;13.80;;;3.30;;
57627;SDS011;43451;49.060;10.616;2023-02-01T11:22:45;9.27;;;3.40;;
57627;SDS011;43451;49.060;10.616;2023-02-01T11:25:18;9.43;;;2.90;;
57627;SDS011;43451;49.060;10.616;2023-02-01T11:27:44;12.88;;;3.20;;
57627;SDS011;43451;49.060;10.616;2023-02-01T11:30:14;8.10;;;3.10;;
57627;SDS011;43451;49.060;10.616;2023-02-01T11:32:44;11.38;;;2.90;;
57627;SDS011;43451;49.060;10.616;2023-02-01T11:35:15;10.68;;;2.83;;
57627;SDS011;43451;49.060;10.616;2023-02-01T11:37:44;9.63;;;3.00;;
57627;SDS011;43451;49.060;10.616;2023-02-01T11:45:28;8.00;;;2.80;;
57627;SDS011;43451;49.060;10.616;2023-02-01T11:47:56;5.78;;;2.60;;
57627;SDS011;43451;49.060;10.616;2023-02-01T11:58:12;10.65;;;2.60;;
57627;SDS011;43451;49.060;10.616;2023-02-01T12:03:49;6.57;;;2.10;;
57627;SDS011;43451;49.060;10.616;2023-02-01T12:06:42;10.32;;;1.90;;
57627;SDS011;43451;49.060;10.616;2023-02-01T12:09:21;7.88;;;2.08;;
57627;SDS011;43451;49.060;10.616;2023-02-01T12:17:24;9.30;;;2.20;;
57627;SDS011;43451;49.060;10.616;2023-02-01T12:31:11;5.03;;;1.75;;
57627;SDS011;43451;49.060;10.616;2023-02-01T12:34:09;5.15;;;1.60;;
57627;SDS011;43451;49.060;10.616;2023-02-01T12:36:53;8.43;;;1.70;;
57627;SDS011;43451;49.060;10.616;2023-02-01T12:39:32;6.90;;;1.77;;
57627;SDS011;43451;49.060;10.616;2023-02-01T12:42:09;7.18;;;1.67;;
57627;SDS011;43451;49.060;10.616;2023-02-01T12:47:47;9.20;;;1.83;;
57627;SDS011;43451;49.060;10.616;2023-02-01T12:52:51;6.20;;;1.60;;
57627;SDS011;43451;49.060;10.616;2023-02-01T12:55:21;7.45;;;1.75;;
57627;SDS011;43451;49.060;10.616;2023-02-01T12:57:50;6.38;;;1.75;;
57627;SDS011;43451;49.060;10.616;2023-02-01T13:00:23;7.07;;;1.58;;
57627;SDS011;43451;49.060;10.616;2023-02-01T13:08:56;7.60;;;1.92;;
57627;SDS011;43451;49.060;10.616;2023-02-01T13:11:35;9.38;;;1.90;;
57627;SDS011;43451;49.060;10.616;2023-02-01T13:16:56;9.70;;;1.98;;
57627;SDS011;43451;49.060;10.616;2023-02-01T13:27:38;10.55;;;2.10;;
57627;SDS011;43451;49.060;10.616;2023-02-01T13:30:10;7.28;;;2.08;;
57627;SDS011;43451;49.060;10.616;2023-02-01T13:41:10;7.28;;;1.80;;
57627;SDS011;43451;49.060;10.616;2023-02-01T13:43:52;7.47;;;1.83;;
57627;SDS011;43451;49.060;10.616;2023-02-01T13:46:29;5.75;;;1.92;;
57627;SDS011;43451;49.060;10.616;2023-02-01T13:48:56;6.88;;;2.25;;
57627;SDS011;43451;49.060;10.616;2023-02-01T13:54:23;8.25;;;2.13;;
57627;SDS011;43451;49.060;10.616;2023-02-01T13:56:52;6.55;;;1.80;;
57627;SDS011;43451;49.060;10.616;2023-02-01T13:59:36;10.82;;;2.67;;
57627;SDS011;43451;49.060;10.616;2023-02-01T14:05:08;9.55;;;2.22;;
57627;SDS011;43451;49.060;10.616;2023-02-01T14:07:36;10.40;;;2.25;;
57627;SDS011;43451;49.060;10.616;2023-02-01T14:13:05;10.57;;;2.47;;
57627;SDS011;43451;49.060;10.616;2023-02-01T14:15:39;8.07;;;2.30;;
57627;SDS011;43451;49.060;10.616;2023-02-01T14:28:46;7.63;;;2.00;;
57627;SDS011;43451;49.060;10.616;2023-02-01T14:31:35;11.73;;;2.33;;
57627;SDS011;43451;49.060;10.616;2023-02-01T14:34:19;9.57;;;2.03;;
57627;SDS011;43451;49.060;10.616;2023-02-01T14:36:57;10.95;;;2.33;;
57627;SDS011;43451;49.060;10.616;2023-02-01T14:39:26;9.63;;;2.38;;
57627;SDS011;43451;49.060;10.616;2023-02-01T14:41:53;7.27;;;2.00;;
57627;SDS011;43451;49.060;10.616;2023-02-01T14:44:22;10.02;;;1.88;;
57627;SDS011;43451;49.060;10.616;2023-02-01T14:52:16;10.23;;;2.00;;
57627;SDS011;43451;49.060;10.616;2023-02-01T14:54:45;6.85;;;2.30;;
57627;SDS011;43451;49.060;10.616;2023-02-01T14:57:18;7.07;;;1.95;;
57627;SDS011;43451;49.060;10.616;2023-02-01T14:59:47;8.23;;;2.20;;
57627;SDS011;43451;49.060;10.616;2023-02-01T15:02:23;6.03;;;1.58;;
57627;SDS011;43451;49.060;10.616;2023-02-01T15:04:55;13.10;;;1.70;;
57627;SDS011;43451;49.060;10.616;2023-02-01T15:07:22;8.93;;;1.92;;
57627;SDS011;43451;49.060;10.616;2023-02-01T15:09:50;9.25;;;2.00;;
57627;SDS011;43451;49.060;10.616;2023-02-01T15:12:18;8.57;;;1.90;;
57627;SDS011;43451;49.060;10.616;2023-02-01T15:17:58;7.88;;;1.88;;
57627;SDS011;43451;49.060;10.616;2023-02-01T15:20:26;6.35;;;1.83;;
57627;SDS011;43451;49.060;10.616;2023-02-01T15:25:27;8.13;;;2.03;;
57627;SDS011;43451;49.060;10.616;2023-02-01T15:27:54;8.05;;;1.80;;
57627;SDS011;43451;49.060;10.616;2023-02-01T15:30:22;6.55;;;1.52;;
57627;SDS011;43451;49.060;10.616;2023-02-01T15:32:50;10.50;;;2.03;;
57627;SDS011;43451;49.060;10.616;2023-02-01T15:41:14;7.60;;;2.15;;
57627;SDS011;43451;49.060;10.616;2023-02-01T15:43:43;7.07;;;1.98;;
57627;SDS011;43451;49.060;10.616;2023-02-01T15:46:31;12.23;;;2.40;;
57627;SDS011;43451;49.060;10.616;2023-02-01T15:49:22;5.75;;;1.85;;
57627;SDS011;43451;49.060;10.616;2023-02-01T15:51:51;8.82;;;2.25;;
57627;SDS011;43451;49.060;10.616;2023-02-01T15:54:19;6.03;;;2.05;;
57627;SDS011;43451;49.060;10.616;2023-02-01T15:56:50;7.85;;;2.15;;
57627;SDS011;43451;49.060;10.616;2023-02-01T16:00:04;14.02;;;2.03;;
57627;SDS011;43451;49.060;10.616;2023-02-01T16:04:52;11.75;;;2.72;;
57627;SDS011;43451;49.060;10.616;2023-02-01T16:07:29;8.95;;;2.17;;
57627;SDS011;43451;49.060;10.616;2023-02-01T16:09:58;7.55;;;1.92;;
57627;SDS011;43451;49.060;10.616;2023-02-01T16:12:32;9.20;;;2.03;;
57627;SDS011;43451;49.060;10.616;2023-02-01T16:15:09;6.68;;;2.05;;
57627;SDS011;43451;49.060;10.616;2023-02-01T16:17:35;12.20;;;2.38;;
57627;SDS011;43451;49.060;10.616;2023-02-01T16:20:00;9.02;;;1.90;;
57627;SDS011;43451;49.060;10.616;2023-02-01T16:22:26;6.80;;;2.20;;
57627;SDS011;43451;49.060;10.616;2023-02-01T16:24:51;5.78;;;2.10;;
57627;SDS011;43451;49.060;10.616;2023-02-01T16:27:17;7.25;;;2.15;;
57627;SDS011;43451;49.060;10.616;2023-02-01T16:29:42;7.05;;;2.20;;
57627;SDS011;43451;49.060;10.616;2023-02-01T16:32:14;10.25;;;2.10;;
57627;SDS011;43451;49.060;10.616;2023-02-01T16:34:43;11.80;;;2.60;;
57627;SDS011;43451;49.060;10.616;2023-02-01T16:37:11;8.57;;;2.40;;
57627;SDS011;43451;49.060;10.616;2023-02-01T16:39:44;11.45;;;2.08;;
57627;SDS011;43451;49.060;10.616;2023-02-01T16:42:11;10.32;;;2.28;;
57627;SDS011;43451;49.060;10.616;2023-02-01T16:44:37;8.23;;;2.00;;
57627;SDS011;43451;49.060;10.616;2023-02-01T16:47:03;11.75;;;3.13;;
57627;SDS011;43451;49.060;10.616;2023-02-01T16:49:41;9.02;;;2.38;;
57627;SDS011;43451;49.060;10.616;2023-02-01T16:52:10;12.23;;;2.75;;
57627;SDS011;43451;49.060;10.616;2023-02-01T16:54:39;12.57;;;1.90;;
57627;SDS011;43451;49.060;10.616;2023-02-01T16:57:07;7.85;;;2.13;;
57627;SDS011;43451;49.060;10.616;2023-02-01T16:59:36;9.05;;;1.83;;
57627;SDS011;43451;49.060;10.616;2023-02-01T17:02:01;9.77;;;2.85;;
57627;SDS011;43451;49.060;10.616;2023-02-01T17:04:27;13.30;;;2.53;;
57627;SDS011;43451;49.060;10.616;2023-02-01T17:06:52;12.77;;;2.40;;
57627;SDS011;43451;49.060;10.616;2023-02-01T17:09:18;13.38;;;2.17;;
57627;SDS011;43451;49.060;10.616;2023-02-01T17:11:45;8.87;;;2.07;;
57627;SDS011;43451;49.060;10.616;2023-02-01T17:14:15;12.48;;;2.30;;
57627;SDS011;43451;49.060;10.616;2023-02-01T17:16:42;10.32;;;2.08;;
57627;SDS011;43451;49.060;10.616;2023-02-01T17:19:14;9.43;;;2.10;;
57627;SDS011;43451;49.060;10.616;2023-02-01T17:21:44;11.43;;;2.03;;
57627;SDS011;43451;49.060;10.616;2023-02-01T17:24:12;8.73;;;2.15;;
57627;SDS011;43451;49.060;10.616;2023-02-01T17:26:39;10.48;;;2.17;;
57627;SDS011;43451;49.060;10.616;2023-02-01T17:29:05;14.68;;;2.38;;
57627;SDS011;43451;49.060;10.616;2023-02-01T17:31:30;11.73;;;2.42;;
57627;SDS011;43451;49.060;10.616;2023-02-01T17:36:24;10.82;;;2.40;;